createdAt,value
2023-04-09T00:09:09.055Z,11.90
2023-04-09T00:24:11.763Z,12.80
2023-04-09T00:39:14.248Z,11.90
2023-04-09T00:54:16.841Z,11.80
2023-04-09T01:09:30.308Z,11.60
2023-04-09T01:24:57.204Z,11.40
2023-04-09T01:40:08.698Z,11.30
2023-04-09T01:55:11.146Z,10.90
2023-04-09T02:10:14.283Z,10.80
2023-04-09T02:25:16.896Z,10.50
2023-04-09T02:40:19.327Z,10.60
2023-04-09T02:55:22.428Z,10.90
2023-04-09T03:10:24.909Z,10.50
2023-04-09T03:25:27.860Z,10.50
2023-04-09T03:40:31.506Z,10.60
2023-04-09T03:55:34.673Z,10.20
2023-04-09T04:10:41.337Z,10.20
2023-04-09T04:25:45.226Z,9.90
2023-04-09T04:40:52.303Z,9.40
2023-04-09T04:55:57.042Z,8.70
2023-04-09T05:11:02.153Z,8.60
2023-04-09T05:26:11.446Z,8.40
2023-04-09T05:41:23.919Z,9.00
2023-04-09T05:56:43.528Z,9.80
2023-04-09T06:11:46.007Z,10.10
2023-04-09T06:26:48.973Z,8.60
2023-04-09T06:41:51.525Z,8.70
2023-04-09T06:57:09.804Z,8.60
2023-04-09T07:12:12.254Z,9.00
2023-04-09T07:27:14.882Z,9.40
2023-04-09T07:42:17.556Z,9.30
2023-04-09T07:57:20.040Z,9.80
2023-04-09T08:12:22.385Z,10.30
2023-04-09T08:27:25.242Z,10.60
2023-04-09T08:42:28.741Z,10.90
2023-04-09T08:57:40.210Z,11.70
2023-04-09T09:12:42.996Z,11.80
2023-04-09T09:27:45.644Z,12.30
2023-04-09T09:42:57.019Z,12.20
2023-04-09T09:58:08.309Z,12.60
2023-04-09T10:13:19.448Z,12.70
2023-04-09T10:28:23.408Z,13.00
2023-04-09T10:43:25.673Z,14.20
2023-04-09T10:58:28.173Z,14.20
2023-04-09T11:13:32.486Z,14.70
2023-04-09T11:28:35.361Z,14.60
2023-04-09T11:43:37.916Z,15.50
2023-04-09T11:58:47.667Z,14.40
2023-04-09T12:13:59.184Z,14.70
2023-04-09T12:29:01.697Z,14.90
2023-04-09T12:44:05.038Z,15.10
2023-04-09T12:59:10.958Z,14.90
2023-04-09T13:14:14.350Z,15.00
2023-04-09T13:29:18.039Z,15.00
2023-04-09T13:44:20.896Z,15.40
2023-04-09T13:59:23.422Z,15.00
2023-04-09T14:14:25.995Z,15.10
2023-04-09T14:29:28.914Z,14.80
2023-04-09T14:44:31.600Z,14.90
2023-04-09T14:59:34.758Z,14.80
2023-04-09T15:14:37.145Z,14.80
2023-04-09T15:29:39.572Z,14.80
2023-04-09T15:44:42.608Z,14.70
2023-04-09T15:59:45.591Z,14.90
2023-04-09T16:14:47.918Z,14.70
2023-04-09T16:29:50.491Z,14.30
2023-04-09T16:44:54.157Z,14.20
2023-04-09T16:59:57.886Z,14.00
2023-04-09T17:15:01.040Z,13.60
2023-04-09T17:30:04.290Z,13.30
2023-04-09T17:45:07.539Z,13.30
2023-04-09T18:00:10.986Z,13.00
2023-04-09T18:15:21.854Z,12.50
2023-04-09T18:30:26.194Z,12.30
2023-04-09T18:45:28.834Z,11.90
2023-04-09T19:00:31.183Z,11.90
2023-04-09T19:15:33.629Z,12.50
2023-04-09T19:30:35.982Z,12.70
2023-04-09T19:45:39.538Z,12.60
2023-04-09T20:00:42.154Z,12.60
2023-04-09T20:15:45.572Z,11.80
2023-04-09T20:30:48.134Z,11.90
2023-04-09T20:45:52.655Z,11.80
2023-04-09T21:01:06.629Z,11.40
2023-04-09T21:16:09.912Z,10.80
2023-04-09T21:31:12.718Z,11.00
2023-04-09T21:46:15.335Z,11.80
2023-04-09T22:01:26.466Z,11.70
2023-04-09T22:16:32.684Z,12.10
2023-04-09T22:31:35.153Z,12.00
2023-04-09T22:46:37.638Z,11.90
2023-04-09T23:01:40.638Z,12.00
2023-04-09T23:16:43.168Z,12.00
2023-04-09T23:31:45.576Z,12.00
2023-04-09T23:46:47.934Z,11.70
